Time;durP1;ratioP1;P1;durP2;ratioP2;P2;SDS_P1;SDS_P2;PMS_P1;PMS_P2;Temp;Humidity;BMP_temperature;BMP_pressure;BME280_temperature;BME280_humidity;BME280_pressure;Samples;Min_cycle;Max_cycle;Signal;HPM_P1;HPM_P2
2023/08/27 00:01:51;;;;;;;28.40;18.60;;;;;;;21.06;100.00;98650.44;5139677;28;20051;-63
2023/08/27 00:04:17;;;;;;;33.25;19.55;;;;;;;20.99;100.00;98633.97;5139353;28;20132;-64
2023/08/27 00:06:43;;;;;;;31.10;21.13;;;;;;;21.02;100.00;98624.72;5139441;28;20051;-61
2023/08/27 00:09:10;;;;;;;25.02;17.85;;;;;;;21.00;100.00;98641.91;5139506;28;20061;-61
2023/08/27 00:11:36;;;;;;;27.17;17.85;;;;;;;20.90;100.00;98640.25;5139396;28;20043;-63
2023/08/27 00:14:03;;;;;;;30.77;17.90;;;;;;;20.90;100.00;98643.03;5139205;28;20142;-64
2023/08/27 00:16:29;;;;;;;25.92;18.60;;;;;;;20.87;100.00;98646.69;5139750;28;20051;-64
2023/08/27 00:18:55;;;;;;;31.02;20.60;;;;;;;20.80;100.00;98636.56;5139075;28;20066;-66
2023/08/27 00:21:21;;;;;;;29.90;19.20;;;;;;;20.84;100.00;98612.16;5139508;28;20481;-63
2023/08/27 00:23:47;;;;;;;37.30;21.88;;;;;;;20.77;100.00;98622.75;5139015;28;20046;-61
2023/08/27 00:26:14;;;;;;;30.83;19.48;;;;;;;20.80;100.00;98608.72;5139129;28;20055;-61
2023/08/27 00:28:40;;;;;;;31.58;20.63;;;;;;;20.66;100.00;98607.16;5139256;28;20134;-64
2023/08/27 00:31:06;;;;;;;30.42;19.05;;;;;;;20.75;100.00;98614.81;5139097;28;20329;-63
2023/08/27 00:33:32;;;;;;;38.17;21.88;;;;;;;20.75;100.00;98619.63;5139094;28;20059;-66
2023/08/27 00:35:58;;;;;;;30.27;20.38;;;;;;;20.73;100.00;98625.66;5138917;28;20047;-67
2023/08/27 00:38:23;;;;;;;30.30;20.90;;;;;;;20.74;100.00;98630.00;5139031;28;20126;-66
2023/08/27 00:40:49;;;;;;;33.22;20.17;;;;;;;20.68;100.00;98624.19;5138713;28;20057;-63
2023/08/27 00:43:16;;;;;;;31.50;20.55;;;;;;;20.74;100.00;98626.44;5139107;28;20142;-64
2023/08/27 00:45:43;;;;;;;33.60;20.60;;;;;;;20.58;100.00;98625.31;5138592;28;20161;-63
2023/08/27 00:48:09;;;;;;;32.63;19.83;;;;;;;20.62;100.00;98627.97;5139059;28;20146;-65
2023/08/27 00:50:35;;;;;;;30.80;20.63;;;;;;;20.64;100.00;98626.31;5138506;28;20137;-64
2023/08/27 00:53:02;;;;;;;30.77;20.80;;;;;;;20.53;100.00;98628.66;5138322;27;20138;-60
2023/08/27 00:55:28;;;;;;;32.53;20.02;;;;;;;20.57;100.00;98612.63;5138068;28;20294;-65
2023/08/27 00:57:54;;;;;;;33.80;20.10;;;;;;;20.61;100.00;98620.88;5138637;28;20050;-64
2023/08/27 01:00:21;;;;;;;32.97;19.50;;;;;;;20.56;100.00;98629.75;5138721;28;20053;-61
2023/08/27 01:02:48;;;;;;;39.05;18.10;;;;;;;20.49;100.00;98622.38;5138545;28;20073;-66
2023/08/27 01:05:14;;;;;;;24.38;18.25;;;;;;;20.46;100.00;98617.72;5138769;28;20087;-62
2023/08/27 01:07:49;;;;;;;20.95;16.58;;;;;;;20.32;100.00;98630.06;5138310;28;20043;-63
2023/08/27 01:10:26;;;;;;;24.48;17.17;;;;;;;20.38;100.00;98630.28;5138644;28;20133;-66
2023/08/27 01:13:01;;;;;;;25.85;16.00;;;;;;;20.29;100.00;98636.50;5138143;28;20126;-61
2023/08/27 01:15:28;;;;;;;27.60;24.55;;;;;;;20.27;100.00;98632.63;5138212;28;20047;-63
2023/08/27 01:17:55;;;;;;;25.15;17.75;;;;;;;20.29;100.00;98630.16;5138438;28;20138;-65
2023/08/27 01:20:22;;;;;;;27.38;17.85;;;;;;;20.31;100.00;98636.84;5138021;28;20484;-62
2023/08/27 01:22:48;;;;;;;30.98;27.00;;;;;;;20.29;100.00;98630.94;5138399;28;20146;-67
2023/08/27 01:25:18;;;;;;;22.55;16.25;;;;;;;20.24;100.00;98617.59;5138156;28;20047;-65
2023/08/27 01:27:51;;;;;;;30.40;26.10;;;;;;;20.22;100.00;98604.09;5138299;28;20058;-64
2023/08/27 01:30:23;;;;;;;30.38;19.75;;;;;;;20.25;100.00;98598.88;5137979;28;20051;-67
2023/08/27 01:32:57;;;;;;;27.58;18.95;;;;;;;20.23;100.00;98604.91;5138241;28;20047;-64
2023/08/27 01:35:24;;;;;;;32.08;28.48;;;;;;;20.13;100.00;98608.78;5137927;28;20047;-66
2023/08/27 01:37:50;;;;;;;23.95;17.02;;;;;;;20.14;100.00;98607.56;5137806;28;20084;-65
2023/08/27 01:40:18;;;;;;;23.80;16.40;;;;;;;20.11;100.00;98616.78;5137832;28;20146;-66
2023/08/27 01:42:43;;;;;;;23.33;16.50;;;;;;;20.06;100.00;98601.44;5138155;28;20086;-66
2023/08/27 01:45:12;;;;;;;23.30;16.90;;;;;;;20.07;100.00;98610.56;5138028;28;20142;-67
2023/08/27 01:47:38;;;;;;;26.15;16.65;;;;;;;20.01;100.00;98615.09;5137795;28;20367;-62
2023/08/27 01:50:05;;;;;;;28.52;18.38;;;;;;;20.07;100.00;98614.09;5137807;28;20141;-62
2023/08/27 01:52:31;;;;;;;25.52;18.50;;;;;;;20.05;100.00;98605.41;5137698;28;20051;-67
2023/08/27 01:54:58;;;;;;;30.33;17.85;;;;;;;20.05;100.00;98599.84;5138341;28;20058;-61
2023/08/27 01:57:24;;;;;;;27.65;18.00;;;;;;;20.10;100.00;98606.88;5137736;28;20057;-62
2023/08/27 01:59:50;;;;;;;35.55;31.05;;;;;;;20.01;100.00;98624.22;5137922;28;20074;-62
2023/08/27 02:02:15;;;;;;;22.63;17.05;;;;;;;20.05;100.00;98635.25;5137427;28;20455;-62
2023/08/27 02:04:41;;;;;;;28.20;17.00;;;;;;;20.03;100.00;98646.81;5137598;27;20047;-64
2023/08/27 02:07:09;;;;;;;24.48;17.83;;;;;;;19.98;100.00;98655.72;5137315;28;20047;-64
2023/08/27 02:09:35;;;;;;;25.65;18.90;;;;;;;19.99;100.00;98646.13;5137514;28;20105;-62
2023/08/27 02:12:01;;;;;;;30.27;19.20;;;;;;;19.97;100.00;98651.38;5137525;28;20393;-64
2023/08/27 02:14:27;;;;;;;26.75;17.67;;;;;;;20.00;100.00;98649.72;5137259;28;20054;-64
2023/08/27 02:16:53;;;;;;;28.70;18.05;;;;;;;20.05;100.00;98644.38;5137501;28;20089;-66
2023/08/27 02:19:19;;;;;;;23.55;18.25;;;;;;;20.05;100.00;98649.94;5137387;28;20105;-65
2023/08/27 02:21:45;;;;;;;23.98;18.15;;;;;;;20.05;100.00;98638.81;5137596;28;20051;-66
2023/08/27 02:24:11;;;;;;;26.02;16.90;;;;;;;20.08;100.00;98635.13;5137136;28;20095;-65
2023/08/27 02:26:37;;;;;;;24.33;17.13;;;;;;;20.09;100.00;98633.94;5137543;28;20131;-64
2023/08/27 02:29:03;;;;;;;23.88;16.63;;;;;;;20.09;100.00;98631.16;5137163;28;20051;-63
2023/08/27 02:31:29;;;;;;;21.48;16.33;;;;;;;20.12;100.00;98626.69;5137469;28;20134;-64
2023/08/27 02:33:55;;;;;;;22.88;16.75;;;;;;;20.08;100.00;98631.59;5137032;28;20093;-62
2023/08/27 02:36:21;;;;;;;26.25;17.02;;;;;;;20.07;100.00;98636.38;5137444;28;20424;-61
2023/08/27 02:38:47;;;;;;;21.45;16.88;;;;;;;20.02;100.00;98631.34;5137164;28;20051;-64
2023/08/27 02:41:13;;;;;;;27.52;17.02;;;;;;;20.12;100.00;98627.47;5137164;28;20051;-66
2023/08/27 02:43:39;;;;;;;21.33;16.30;;;;;;;20.07;100.00;98625.25;5137198;28;20389;-63
2023/08/27 02:46:06;;;;;;;29.88;25.92;;;;;;;20.00;100.00;98625.44;5137067;28;20047;-61
2023/08/27 02:48:32;;;;;;;22.55;17.63;;;;;;;20.02;100.00;98622.22;5137166;28;20100;-67
2023/08/27 02:50:58;;;;;;;24.52;17.77;;;;;;;20.04;100.00;98623.34;5137009;28;20090;-64
2023/08/27 02:53:24;;;;;;;32.35;17.90;;;;;;;20.03;100.00;98618.22;5136961;28;20141;-64
2023/08/27 02:55:50;;;;;;;26.85;16.13;;;;;;;20.00;100.00;98635.81;5136918;28;20086;-62
2023/08/27 02:58:16;;;;;;;30.20;17.65;;;;;;;19.82;100.00;98642.63;5137141;28;20043;-61
2023/08/27 03:00:42;;;;;;;25.77;17.13;;;;;;;19.96;100.00;98631.13;5136749;28;20051;-62
2023/08/27 03:03:08;;;;;;;28.13;17.55;;;;;;;20.04;100.00;98630.91;5137385;28;20051;-62
2023/08/27 03:05:34;;;;;;;27.08;18.08;;;;;;;20.09;100.00;98638.69;5136543;28;20442;-62
2023/08/27 03:08:00;;;;;;;23.60;16.52;;;;;;;20.01;100.00;98629.78;5136805;28;20047;-64
2023/08/27 03:10:26;;;;;;;22.38;16.48;;;;;;;19.97;100.00;98631.91;5136849;28;20460;-65
2023/08/27 03:12:52;;;;;;;29.40;16.70;;;;;;;20.05;100.00;98633.25;5136679;28;20061;-67
2023/08/27 03:15:18;;;;;;;25.92;15.77;;;;;;;20.05;100.00;98646.38;5136651;28;20404;-67
2023/08/27 03:17:44;;;;;;;21.17;16.83;;;;;;;20.01;100.00;98651.28;5138400;27;20142;-66
2023/08/27 03:20:11;;;;;;;26.65;16.15;;;;;;;20.04;100.00;98655.94;5140471;28;20071;-64
2023/08/27 03:22:37;;;;;;;24.65;16.10;;;;;;;19.94;100.00;98677.28;5140384;28;20061;-66
2023/08/27 03:25:04;;;;;;;26.00;16.02;;;;;;;19.96;100.00;98672.06;5140365;28;20047;-62
2023/08/27 03:27:33;;;;;;;22.23;16.33;;;;;;;19.87;100.00;98675.47;5140232;28;20057;-64
2023/08/27 03:29:59;;;;;;;32.42;27.20;;;;;;;19.88;100.00;98659.56;5140387;28;20137;-64
2023/08/27 03:32:24;;;;;;;25.60;17.42;;;;;;;19.89;100.00;98661.94;5139690;28;20416;-62
2023/08/27 03:34:50;;;;;;;25.73;16.95;;;;;;;19.88;100.00;98656.78;5140232;28;20165;-63
2023/08/27 03:37:17;;;;;;;27.17;16.85;;;;;;;19.98;100.00;98666.84;5139897;28;20186;-62
2023/08/27 03:39:43;;;;;;;26.85;19.33;;;;;;;19.90;100.00;98671.06;5139958;28;20051;-62
2023/08/27 03:42:09;;;;;;;30.77;17.02;;;;;;;19.96;100.00;98678.41;5140010;28;20051;-61
2023/08/27 03:44:36;;;;;;;25.63;17.17;;;;;;;20.19;100.00;98674.59;5139812;28;20369;-62
2023/08/27 03:47:02;;;;;;;31.67;24.83;;;;;;;20.42;100.00;98706.13;5140166;28;20062;-61
2023/08/27 03:49:28;;;;;;;20.33;15.10;;;;;;;20.47;100.00;98713.16;5139692;28;20047;-66
2023/08/27 03:51:54;;;;;;;21.63;14.45;;;;;;;20.84;100.00;98745.88;5139838;28;20107;-67
2023/08/27 03:54:20;;;;;;;18.95;12.95;;;;;;;21.10;100.00;98796.06;5139464;28;20079;-66
2023/08/27 03:56:46;;;;;;;20.42;13.65;;;;;;;21.34;100.00;98827.97;5139861;28;20415;-67
2023/08/27 03:59:12;;;;;;;20.98;13.50;;;;;;;21.55;100.00;98882.28;5139665;28;20051;-66
2023/08/27 04:01:38;;;;;;;23.85;13.35;;;;;;;21.63;100.00;98924.72;5139836;28;20073;-64
2023/08/27 04:04:04;;;;;;;17.13;12.20;;;;;;;21.99;100.00;98948.69;5139228;28;20043;-62
2023/08/27 04:06:31;;;;;;;17.77;13.18;;;;;;;21.95;100.00;98979.50;5139516;28;20123;-66
2023/08/27 04:08:57;;;;;;;20.20;12.73;;;;;;;22.04;100.00;98995.59;5139213;28;20061;-67
2023/08/27 04:11:23;;;;;;;17.38;13.63;;;;;;;22.19;100.00;99019.06;5139157;28;20096;-62
2023/08/27 04:13:50;;;;;;;23.13;12.15;;;;;;;22.42;100.00;99022.72;5139193;28;20409;-62
2023/08/27 04:16:16;;;;;;;18.58;11.82;;;;;;;22.62;100.00;99033.66;5139291;28;20051;-61
2023/08/27 04:18:42;;;;;;;13.02;11.35;;;;;;;22.73;100.00;99042.47;5139435;28;20079;-64
2023/08/27 04:21:08;;;;;;;16.95;13.07;;;;;;;22.79;100.00;99030.28;5139159;28;20413;-67
2023/08/27 04:23:34;;;;;;;15.50;12.10;;;;;;;23.02;100.00;99005.94;5139423;28;20358;-67
2023/08/27 04:26:00;;;;;;;17.50;11.55;;;;;;;23.38;100.00;98952.28;5138968;28;20458;-64
2023/08/27 04:28:26;;;;;;;17.50;12.02;;;;;;;23.67;100.00;98873.63;5139303;27;20110;-64
2023/08/27 04:30:52;;;;;;;16.05;11.45;;;;;;;23.67;100.00;98828.06;5138895;28;20061;-66
2023/08/27 04:33:18;;;;;;;19.90;12.95;;;;;;;24.01;100.00;98757.09;5139268;28;20047;-64
2023/08/27 04:35:48;;;;;;;13.52;11.73;;;;;;;24.14;100.00;98692.53;5139092;28;20336;-63
2023/08/27 04:38:14;;;;;;;18.38;11.93;;;;;;;24.22;100.00;98687.38;5138916;28;20058;-66
2023/08/27 04:40:39;;;;;;;15.25;11.18;;;;;;;24.53;100.00;98591.91;5138824;28;20051;-64
2023/08/27 04:43:05;;;;;;;19.85;11.88;;;;;;;24.51;100.00;98533.53;5138870;28;20061;-65
2023/08/27 04:45:32;;;;;;;19.63;12.65;;;;;;;24.64;100.00;98418.41;5139023;28;20051;-62
2023/08/27 04:47:58;;;;;;;16.02;14.32;;;;;;;24.62;100.00;98466.56;5138849;28;20329;-63
2023/08/27 04:50:24;;;;;;;14.50;11.85;;;;;;;24.92;100.00;98444.19;5138941;28;20078;-63
2023/08/27 04:52:50;;;;;;;19.00;12.70;;;;;;;25.06;100.00;98266.03;5138541;28;20058;-61
2023/08/27 04:55:16;;;;;;;15.63;12.27;;;;;;;25.34;100.00;98107.34;5138895;28;20076;-63
2023/08/27 04:57:42;;;;;;;15.05;11.55;;;;;;;25.76;100.00;97943.25;5138444;28;20188;-65
2023/08/27 05:00:09;;;;;;;15.00;11.95;;;;;;;25.86;100.00;97892.53;5138886;28;20053;-67
2023/08/27 05:02:36;;;;;;;17.27;11.77;;;;;;;25.57;100.00;97914.75;5138475;28;20192;-66
2023/08/27 05:05:02;;;;;;;16.58;14.80;;;;;;;25.28;100.00;98100.13;5138601;28;20047;-67
2023/08/27 05:07:28;;;;;;;17.13;15.45;;;;;;;25.27;100.00;98163.88;5138486;28;20134;-63
2023/08/27 05:09:54;;;;;;;17.33;15.63;;;;;;;25.55;100.00;98074.41;5138461;28;20331;-64
2023/08/27 05:12:20;;;;;;;16.67;14.90;;;;;;;25.53;100.00;98185.63;5138460;28;20118;-67
2023/08/27 05:14:46;;;;;;;18.60;12.43;;;;;;;25.66;100.00;98044.94;5138296;28;20051;-66
2023/08/27 05:17:12;;;;;;;17.05;12.93;;;;;;;25.41;100.00;98085.75;5138504;28;20138;-62
2023/08/27 05:19:39;;;;;;;16.48;14.80;;;;;;;25.21;100.00;98199.47;5138164;28;20333;-65
2023/08/27 05:22:05;;;;;;;18.20;15.52;;;;;;;25.02;100.00;98322.28;5138484;28;20055;-64
2023/08/27 05:24:31;;;;;;;16.98;12.77;;;;;;;24.63;100.00;98400.06;5138142;28;20051;-67
2023/08/27 05:26:57;;;;;;;17.65;12.27;;;;;;;24.44;100.00;98584.31;5138452;28;20451;-67
2023/08/27 05:29:23;;;;;;;16.00;12.07;;;;;;;24.04;100.00;98676.97;5137927;28;20051;-66
2023/08/27 05:31:49;;;;;;;12.07;10.45;;;;;;;23.83;100.00;98757.84;5138242;28;20487;-64
2023/08/27 05:34:15;;;;;;;19.00;11.93;;;;;;;23.70;100.00;98830.75;5138067;28;20047;-61
2023/08/27 05:36:42;;;;;;;27.88;12.10;;;;;;;23.62;100.00;98860.22;5138017;28;20070;-62
2023/08/27 05:39:08;;;;;;;18.60;12.40;;;;;;;23.46;100.00;98916.44;5137968;27;20065;-61
2023/08/27 05:41:34;;;;;;;15.88;12.20;;;;;;;23.34;100.00;98939.69;5137284;28;20043;-67
2023/08/27 05:44:00;;;;;;;16.30;14.70;;;;;;;23.30;100.00;98981.00;5138051;28;20047;-66
2023/08/27 05:46:26;;;;;;;17.33;12.68;;;;;;;23.47;100.00;98985.16;5137754;28;20047;-64
2023/08/27 05:48:52;;;;;;;16.23;12.70;;;;;;;23.43;100.00;98988.06;5138068;28;20179;-62
2023/08/27 05:51:17;;;;;;;18.33;13.55;;;;;;;23.55;100.00;98989.22;5137483;28;20471;-61
2023/08/27 05:53:44;;;;;;;17.73;14.18;;;;;;;23.75;100.00;98991.69;5138047;28;20093;-61
2023/08/27 05:56:10;;;;;;;20.25;13.70;;;;;;;23.84;100.00;98957.38;5137785;28;20057;-62
2023/08/27 05:58:36;;;;;;;18.38;13.80;;;;;;;24.03;100.00;98916.22;5137443;28;20055;-62
2023/08/27 06:01:02;;;;;;;20.92;17.58;;;;;;;23.71;100.00;98957.47;5137379;28;20456;-62
2023/08/27 06:03:29;;;;;;;15.02;11.95;;;;;;;23.86;100.00;98952.09;5137865;28;20070;-61
2023/08/27 06:05:54;;;;;;;15.73;12.07;;;;;;;24.06;100.00;98881.69;5138517;28;20051;-64
2023/08/27 06:08:20;;;;;;;22.65;11.77;;;;;;;24.21;100.00;98846.25;5139583;28;20332;-66
2023/08/27 06:10:47;;;;;;;19.73;11.73;;;;;;;24.19;100.00;98829.09;5139736;28;20138;-64
2023/08/27 06:13:13;;;;;;;15.90;12.18;;;;;;;23.97;100.00;98825.69;5137626;28;20055;-66
2023/08/27 06:15:39;;;;;;;17.73;12.27;;;;;;;24.29;100.00;98888.72;5137527;28;20051;-64
2023/08/27 06:18:05;;;;;;;13.32;11.40;;;;;;;24.74;100.00;98786.31;5137312;28;20043;-64
2023/08/27 06:20:32;;;;;;;16.67;12.23;;;;;;;24.64;100.00;98723.88;5137407;28;20138;-66
2023/08/27 06:22:58;;;;;;;16.65;11.98;;;;;;;24.56;100.00;98793.50;5137166;28;20062;-67
2023/08/27 06:25:24;;;;;;;17.95;16.15;;;;;;;24.67;100.00;98797.84;5137504;28;20043;-62
2023/08/27 06:27:55;;;;;;;20.50;16.95;;;;;;;24.36;100.00;98878.00;5137053;28;20051;-66
2023/08/27 06:30:21;;;;;;;19.65;16.13;;;;;;;24.47;100.00;98899.22;5137520;28;20058;-62
2023/08/27 06:32:46;;;;;;;17.15;15.45;;;;;;;24.71;100.00;98860.91;5137148;28;20087;-65
2023/08/27 06:35:12;;;;;;;18.38;15.07;;;;;;;24.72;100.00;98840.03;5137159;28;20158;-66
2023/08/27 06:37:38;;;;;;;18.63;16.02;;;;;;;24.67;100.00;98874.31;5137180;28;20047;-67
2023/08/27 06:40:05;;;;;;;13.85;11.45;;;;;;;24.70;100.00;98788.50;5137111;28;20058;-66
2023/08/27 06:42:31;;;;;;;20.40;12.43;;;;;;;24.70;100.00;98814.50;5137244;28;20246;-61
2023/08/27 06:44:58;;;;;;;18.65;11.43;;;;;;;24.74;100.00;98797.53;5137021;28;20071;-63
2023/08/27 06:47:24;;;;;;;14.73;11.65;;;;;;;24.66;100.00;98799.88;5137272;28;20130;-62
2023/08/27 06:49:50;;;;;;;13.63;11.27;;;;;;;24.78;100.00;98796.09;5136984;28;20439;-62
2023/08/27 06:52:17;;;;;;;17.33;10.75;;;;;;;24.85;100.00;98719.28;5138201;27;20047;-61
2023/08/27 06:54:44;;;;;;;13.00;10.35;;;;;;;24.77;100.00;98763.72;5140295;28;20051;-63
2023/08/27 06:57:09;;;;;;;19.73;10.57;;;;;;;24.26;100.00;98635.56;5140849;28;20139;-62
2023/08/27 06:59:36;;;;;;;14.63;11.30;;;;;;;24.57;100.00;98716.59;5140150;28;20051;-64
2023/08/27 07:02:03;;;;;;;13.82;11.45;;;;;;;24.59;100.00;98587.19;5140526;28;20266;-62
2023/08/27 07:04:29;;;;;;;13.18;10.50;;;;;;;24.67;100.00;98596.06;5140527;28;20055;-67
2023/08/27 07:06:55;;;;;;;16.05;11.10;;;;;;;24.81;100.00;98534.44;5140022;28;20191;-63
2023/08/27 07:09:22;;;;;;;17.70;15.88;;;;;;;24.37;100.00;98635.06;5140133;28;20312;-64
2023/08/27 07:11:48;;;;;;;19.45;11.10;;;;;;;24.44;100.00;98746.81;5140114;28;20370;-67
2023/08/27 07:14:14;;;;;;;18.10;11.05;;;;;;;24.53;100.00;98735.59;5140168;28;20111;-66
2023/08/27 07:16:40;;;;;;;18.77;11.90;;;;;;;24.62;100.00;98738.38;5140022;28;20195;-61
2023/08/27 07:19:07;;;;;;;17.80;15.35;;;;;;;24.49;100.00;98756.59;5140363;28;20055;-62
2023/08/27 07:21:33;;;;;;;16.65;11.20;;;;;;;24.24;100.00;98789.28;5139908;28;20089;-61
2023/08/27 07:23:59;;;;;;;14.90;11.23;;;;;;;24.53;100.00;98720.81;5140405;28;20047;-64
2023/08/27 07:26:25;;;;;;;17.15;11.55;;;;;;;24.67;100.00;98815.44;5139920;28;20435;-63
2023/08/27 07:28:51;;;;;;;17.20;10.80;;;;;;;25.00;100.00;98745.41;5140374;28;20055;-62
2023/08/27 07:31:17;;;;;;;14.93;11.00;;;;;;;25.06;100.00;98524.00;5139802;28;20051;-63
2023/08/27 07:33:43;;;;;;;17.90;10.85;;;;;;;25.20;100.00;98449.59;5139665;28;20466;-67
2023/08/27 07:36:09;;;;;;;18.00;10.13;;;;;;;25.32;100.00;98440.13;5140056;28;20050;-66
2023/08/27 07:38:39;;;;;;;20.95;11.45;;;;;;;25.31;100.00;98310.31;5139679;28;20420;-66
2023/08/27 07:41:05;;;;;;;12.20;10.30;;;;;;;25.14;100.00;98300.06;5139833;28;20051;-67
2023/08/27 07:43:31;;;;;;;16.02;14.32;;;;;;;25.02;100.00;98378.34;5139748;28;20051;-67
2023/08/27 07:45:57;;;;;;;15.88;13.23;;;;;;;25.05;100.00;98391.41;5139851;28;20058;-66
2023/08/27 07:48:23;;;;;;;15.15;10.45;;;;;;;25.07;100.00;98374.91;5139628;28;20481;-65
2023/08/27 07:50:50;;;;;;;16.83;9.70;;;;;;;24.67;100.00;98425.09;5139896;28;20058;-64
2023/08/27 07:53:17;;;;;;;16.17;10.75;;;;;;;24.88;100.00;98506.06;5139362;28;20134;-66
2023/08/27 07:55:42;;;;;;;15.05;11.05;;;;;;;24.76;100.00;98481.06;5139980;28;20142;-67
2023/08/27 07:58:08;;;;;;;16.73;10.45;;;;;;;25.50;100.00;98329.72;5139308;28;20145;-67
2023/08/27 08:00:34;;;;;;;13.90;10.43;;;;;;;25.26;100.00;98231.69;5139671;28;20078;-65
2023/08/27 08:03:00;;;;;;;15.20;9.45;;;;;;;25.81;100.00;98150.28;5139197;27;20053;-63
2023/08/27 08:05:26;;;;;;;15.13;13.32;;;;;;;25.68;100.00;98028.38;5139519;28;20055;-62
2023/08/27 08:07:52;;;;;;;14.93;12.75;;;;;;;25.67;100.00;98010.78;5139817;28;20069;-65
2023/08/27 08:10:20;;;;;;;13.85;12.30;;;;;;;26.12;100.00;97994.31;5139216;28;20406;-66
2023/08/27 08:12:46;;;;;;;13.93;10.55;;;;;;;26.52;100.00;97883.78;5139324;28;20098;-65
2023/08/27 08:15:12;;;;;;;11.30;9.23;;;;;;;26.87;100.00;97739.19;5139158;28;20047;-66
2023/08/27 08:17:38;;;;;;;14.27;8.63;;;;;;;27.17;100.00;97648.69;5139345;28;20053;-63
2023/08/27 08:20:06;;;;;;;11.13;10.13;;;;;;;26.86;100.00;97622.41;5138910;28;20047;-62
2023/08/27 08:22:31;;;;;;;10.82;9.75;;;;;;;28.05;100.00;97620.72;5138986;28;20083;-67
2023/08/27 08:24:57;;;;;;;9.90;8.82;;;;;;;28.55;100.00;97655.50;5138840;28;20324;-65
2023/08/27 08:27:24;;;;;;;11.88;10.27;;;;;;;28.69;100.00;97681.78;5139298;28;20047;-65
2023/08/27 08:29:50;;;;;;;11.82;8.52;;;;;;;28.91;100.00;97701.34;5138795;28;20409;-62
2023/08/27 08:32:16;;;;;;;9.80;7.82;;;;;;;28.88;100.00;97747.53;5138878;28;20087;-65
2023/08/27 08:34:42;;;;;;;9.52;8.10;;;;;;;29.12;100.00;97808.94;5139089;28;20191;-67
2023/08/27 08:37:08;;;;;;;9.77;7.93;;;;;;;29.29;100.00;97840.63;5138859;28;20107;-68
2023/08/27 08:39:34;;;;;;;10.23;8.18;;;;;;;29.23;100.00;97876.59;5138934;28;20066;-63
2023/08/27 08:42:09;;;;;;;8.50;7.28;;;;;;;29.05;100.00;97843.34;5138636;28;20492;-62
2023/08/27 08:44:50;;;;;;;7.82;7.03;;;;;;;28.64;100.00;97855.38;5138918;28;20057;-64
2023/08/27 08:47:17;;;;;;;8.60;7.45;;;;;;;28.83;100.00;97773.75;5138600;28;20055;-67
2023/08/27 08:49:44;;;;;;;10.07;7.80;;;;;;;28.92;100.00;97832.63;5139068;28;20142;-65
2023/08/27 08:52:15;;;;;;;8.00;7.03;;;;;;;29.17;100.00;97810.97;5138387;28;20051;-68
2023/08/27 08:54:42;;;;;;;8.68;7.68;;;;;;;29.09;100.00;97770.50;5139335;28;20106;-66
2023/08/27 08:57:13;;;;;;;9.45;8.50;;;;;;;29.10;100.00;97796.66;5139345;28;20055;-65
2023/08/27 08:59:40;;;;;;;10.10;7.50;;;;;;;29.08;100.00;97836.66;5138761;28;20061;-63
2023/08/27 09:02:10;;;;;;;8.30;7.30;;;;;;;28.82;100.00;97789.91;5138643;28;20064;-64
2023/08/27 09:04:37;;;;;;;8.55;7.53;;;;;;;28.51;100.00;97762.91;5138500;28;20163;-66
2023/08/27 09:07:04;;;;;;;8.18;7.35;;;;;;;28.57;100.00;97791.06;5138501;28;20146;-62
2023/08/27 09:09:31;;;;;;;8.05;7.22;;;;;;;28.72;100.00;97766.09;5138260;28;20051;-65
2023/08/27 09:11:59;;;;;;;8.60;7.80;;;;;;;28.22;100.00;97752.28;5138629;28;20188;-61
2023/08/27 09:14:25;;;;;;;9.48;7.88;;;;;;;27.95;100.00;97670.19;5137125;27;20051;-62
2023/08/27 09:16:51;;;;;;;8.75;7.85;;;;;;;27.85;100.00;97629.53;5138366;28;20047;-61
2023/08/27 09:19:17;;;;;;;8.48;7.60;;;;;;;28.23;100.00;97689.00;5138043;28;20061;-61
2023/08/27 09:21:44;;;;;;;8.30;7.40;;;;;;;28.05;100.00;97631.97;5138288;28;20059;-65
2023/08/27 09:24:10;;;;;;;9.02;7.47;;;;;;;28.19;100.00;97638.56;5138220;28;20130;-64
2023/08/27 09:26:38;;;;;;;8.82;7.93;;;;;;;28.12;100.00;97627.84;5138101;28;20072;-61
2023/08/27 09:29:05;;;;;;;9.18;8.18;;;;;;;27.90;100.00;97637.97;5138049;28;20047;-61
2023/08/27 09:31:38;;;;;;;10.25;7.80;;;;;;;28.26;100.00;97637.25;5137729;28;20047;-62
2023/08/27 09:34:05;;;;;;;8.98;6.70;;;;;;;28.20;100.00;97591.44;5138193;28;20146;-63
2023/08/27 09:36:32;;;;;;;9.57;7.22;;;;;;;28.16;100.00;97586.09;5137880;28;20061;-65
2023/08/27 09:38:58;;;;;;;8.15;6.93;;;;;;;28.04;100.00;97632.50;5138228;28;20108;-62
2023/08/27 09:41:24;;;;;;;9.68;7.57;;;;;;;27.86;100.00;97650.81;5137670;28;20047;-64
2023/08/27 09:43:54;;;;;;;7.45;6.75;;;;;;;27.74;100.00;97630.34;5138490;28;20090;-66
2023/08/27 09:46:20;;;;;;;7.60;6.70;;;;;;;27.56;100.00;97614.81;5137903;28;20047;-64
2023/08/27 09:48:57;;;;;;;6.72;6.10;;;;;;;27.83;100.00;97649.03;5137893;28;20129;-61
2023/08/27 09:51:23;;;;;;;10.15;7.20;;;;;;;27.84;100.00;97585.78;5137964;28;20050;-65
2023/08/27 09:53:49;;;;;;;10.38;8.30;;;;;;;28.32;100.00;97635.94;5137755;28;20141;-67
2023/08/27 09:56:16;;;;;;;7.97;7.20;;;;;;;28.60;100.00;97689.28;5137894;28;20077;-64
2023/08/27 09:58:42;;;;;;;7.78;6.90;;;;;;;28.64;100.00;97722.84;5137654;28;20138;-61
2023/08/27 10:01:08;;;;;;;7.60;6.50;;;;;;;29.15;100.00;97726.06;5137808;28;20119;-65
2023/08/27 10:03:34;;;;;;;8.13;6.53;;;;;;;29.35;100.00;97763.59;5137604;28;20057;-62
2023/08/27 10:06:01;;;;;;;11.00;7.20;;;;;;;29.04;100.00;97766.41;5138157;28;20103;-65
2023/08/27 10:08:28;;;;;;;7.00;6.30;;;;;;;29.50;100.00;97756.25;5144742;28;20046;-59
2023/08/27 10:11:05;;;;;;;7.75;6.50;;;;;;;29.48;100.00;97828.66;5146684;28;20116;-59
2023/08/27 10:13:32;;;;;;;10.00;6.38;;;;;;;29.32;100.00;97816.22;5139504;28;20051;-61
2023/08/27 10:15:58;;;;;;;9.35;5.50;;;;;;;29.41;100.00;97824.34;5137568;28;20051;-67
2023/08/27 10:18:25;;;;;;;7.03;6.35;;;;;;;28.97;100.00;97811.34;5137832;28;20047;-65
2023/08/27 10:20:53;;;;;;;7.13;5.85;;;;;;;29.39;100.00;97832.59;5137177;28;20412;-63
2023/08/27 10:23:20;;;;;;;5.55;5.05;;;;;;;29.29;100.00;97814.44;5137385;28;20142;-66
2023/08/27 10:25:49;;;;;;;8.35;5.50;;;;;;;29.11;100.00;97844.09;5138018;27;20055;-62
2023/08/27 10:28:16;;;;;;;5.55;4.70;;;;;;;28.59;100.00;97800.56;5144404;27;20400;-62
2023/08/27 10:30:44;;;;;;;6.40;5.03;;;;;;;28.33;100.00;97743.78;5144102;27;20047;-66
2023/08/27 10:33:10;;;;;;;7.45;5.32;;;;;;;28.12;100.00;97687.78;5144367;27;20055;-68
2023/08/27 10:35:39;;;;;;;6.85;5.70;;;;;;;28.24;100.00;97721.53;5143946;27;20047;-66
2023/08/27 10:38:08;;;;;;;6.43;5.72;;;;;;;27.90;100.00;97660.50;5144141;27;20057;-64
2023/08/27 10:40:36;;;;;;;8.50;6.18;;;;;;;27.60;100.00;97657.53;5144268;27;20052;-64
2023/08/27 10:43:16;;;;;;;7.80;5.80;;;;;;;28.18;100.00;97673.66;5144082;27;20340;-67
2023/08/27 10:45:42;;;;;;;9.43;5.47;;;;;;;28.48;100.00;97704.75;5144044;27;20409;-64
2023/08/27 10:48:10;;;;;;;8.18;5.50;;;;;;;28.73;100.00;97781.75;5143815;27;20099;-62
2023/08/27 10:50:47;;;;;;;5.50;5.10;;;;;;;28.95;100.00;97822.38;5144103;27;20054;-67
2023/08/27 10:53:13;;;;;;;6.57;5.53;;;;;;;28.96;100.00;97902.91;5143622;27;20062;-61
2023/08/27 10:55:43;;;;;;;5.65;5.07;;;;;;;28.85;100.00;97862.16;5144426;27;20058;-62
2023/08/27 10:58:17;;;;;;;7.20;5.40;;;;;;;28.03;100.00;97786.69;5143703;27;20055;-64
2023/08/27 11:01:05;;;;;;;5.68;5.15;;;;;;;28.25;100.00;97821.69;5143862;27;20047;-67
2023/08/27 11:03:50;;;;;;;7.03;5.30;;;;;;;28.31;100.00;97876.72;5136999;27;20146;-67
2023/08/27 11:06:16;;;;;;;5.63;5.13;;;;;;;27.95;100.00;97810.25;5143589;27;20051;-67
2023/08/27 11:08:42;;;;;;;8.65;5.65;;;;;;;28.42;100.00;97797.03;5143732;27;20460;-62
2023/08/27 11:11:12;;;;;;;7.45;5.20;;;;;;;28.38;100.00;97799.34;5143448;27;20050;-66